Kensett, Iowa
Current Conditions -  °F | °C
As of 8:53 PM on Monday 26 Jan 2015 (Local Time) from KMCW Reporting Station
Overcast Overcast  
Wind Chill: 29°   Ceiling: 2600
Heat Index: 37°   Visibility: 10mi
Dew Point: 32°   Wind: 13mph
Humidity: 82%   Direction: 330°NNW
Pressure: 29.93"   Gusts: NA
Location:  43.35°N, 93.21°W
Report Text: KMCW 270253Z AUTO 33011KT 10SM OVC026 03/00 A2993 RMK AO2 SLP143 T00280000 53013
Loading
Personal Weather Stations






























Interactive Weather Map New forecast layout! Learn more

10-Day Weather Forecast

Advertisements
Track Severe Weather on mobile